Time;durP1;ratioP1;P1;durP2;ratioP2;P2;SDS_P1;SDS_P2;PMS_P1;PMS_P2;Temp;Humidity;BMP_temperature;BMP_pressure;BME280_temperature;BME280_humidity;BME280_pressure;Samples;Min_cycle;Max_cycle;Signal;HPM_P1;HPM_P2
2022/05/05 00:00:15;;;;;;;0.60;0.10;;;15.30;1.00;;;;;;4971640;28;20534;-72
2022/05/05 00:02:44;;;;;;;0.60;0.20;;;15.30;1.00;;;;;;4972501;28;20474;-74
2022/05/05 00:05:12;;;;;;;0.60;0.10;;;15.30;1.00;;;;;;4973403;28;20465;-72
2022/05/05 00:07:40;;;;;;;0.60;0.10;;;15.30;1.00;;;;;;4972121;28;20445;-72
2022/05/05 00:15:47;;;;;;;0.60;0.10;;;15.30;1.00;;;;;;4950310;28;20451;-72
2022/05/05 00:18:16;;;;;;;0.60;0.10;;;15.30;1.00;;;;;;4966940;28;20938;-71
2022/05/05 00:20:44;;;;;;;0.60;0.10;;;15.20;1.00;;;;;;4974809;28;20547;-72
2022/05/05 00:23:12;;;;;;;0.60;0.10;;;15.30;1.00;;;;;;4974937;28;20476;-73
2022/05/05 00:25:40;;;;;;;0.60;0.20;;;15.30;1.00;;;;;;4975414;28;20450;-73
2022/05/05 00:28:08;;;;;;;0.60;0.10;;;15.20;1.00;;;;;;4991165;28;20449;-71
2022/05/05 00:30:35;;;;;;;0.60;0.10;;;16.10;1.00;;;;;;4991393;28;20450;-72
2022/05/05 00:33:03;;;;;;;0.60;0.10;;;15.10;1.00;;;;;;4973570;28;20486;-72
2022/05/05 00:35:32;;;;;;;0.60;0.30;;;15.20;1.00;;;;;;4971808;28;20445;-72
2022/05/05 00:38:00;;;;;;;0.60;0.20;;;15.20;1.00;;;;;;4970224;28;20490;-71
2022/05/05 00:40:28;;;;;;;0.60;0.10;;;15.10;1.00;;;;;;4986975;28;20449;-70
2022/05/05 00:42:56;;;;;;;0.60;0.10;;;15.10;1.00;;;;;;4974282;28;20466;-70
2022/05/05 00:45:24;;;;;;;0.60;0.10;;;;;;;;;;4968332;28;21167;-71
2022/05/05 00:47:52;;;;;;;0.60;0.10;;;15.00;1.00;;;;;;4970959;28;20855;-72
2022/05/05 00:50:21;;;;;;;1.97;1.27;;;15.00;1.00;;;;;;4972488;28;20529;-73
2022/05/05 00:52:50;;;;;;;0.60;0.10;;;14.90;1.00;;;;;;4972137;28;20468;-71
2022/05/05 00:55:18;;;;;;;1.30;1.20;;;14.90;1.00;;;;;;4972797;28;20453;-71
2022/05/05 00:57:46;;;;;;;1.90;1.80;;;14.90;1.00;;;;;;4973742;28;21003;-71
2022/05/05 01:00:15;;;;;;;0.60;0.10;;;14.90;1.00;;;;;;4972456;28;20952;-72
2022/05/05 01:02:42;;;;;;;0.60;0.10;;;14.90;1.00;;;;;;4972204;28;20500;-72
2022/05/05 01:05:10;;;;;;;0.60;0.10;;;14.90;1.00;;;;;;4971616;28;20446;-72
2022/05/05 01:07:38;;;;;;;0.60;0.10;;;14.90;1.00;;;;;;4971336;28;20450;-72
2022/05/05 01:10:09;;;;;;;0.60;0.10;;;14.90;1.00;;;;;;4971543;28;20831;-73
2022/05/05 01:12:36;;;;;;;0.60;0.10;;;14.90;1.00;;;;;;4971010;28;20511;-72
2022/05/05 01:15:06;;;;;;;0.60;0.10;;;15.00;1.00;;;;;;4971149;28;20800;-73
2022/05/05 01:17:33;;;;;;;0.60;0.10;;;14.90;1.00;;;;;;4971332;28;20510;-72
2022/05/05 01:20:10;;;;;;;0.60;0.20;;;14.90;1.00;;;;;;4975244;28;20910;-72
2022/05/05 01:22:40;;;;;;;0.60;0.10;;;15.00;1.00;;;;;;4974999;28;20502;-72
2022/05/05 01:28:12;;;;;;;0.60;0.10;;;15.00;1.00;;;;;;4994573;28;20437;-71
2022/05/05 01:30:41;;;;;;;0.60;0.10;;;15.00;1.00;;;;;;4995166;28;20480;-72
2022/05/05 01:33:13;;;;;;;0.60;0.20;;;15.00;1.00;;;;;;4980846;28;20482;-72
2022/05/05 01:35:42;;;;;;;0.60;0.20;;;14.90;1.00;;;;;;4974853;28;20452;-73
2022/05/05 01:38:13;;;;;;;1.47;0.70;;;14.90;1.00;;;;;;4974613;28;21031;-72
2022/05/05 01:40:41;;;;;;;0.60;0.10;;;14.90;1.00;;;;;;4975398;28;20452;-72
2022/05/05 01:43:10;;;;;;;0.70;0.47;;;14.80;1.00;;;;;;4974683;28;20481;-72
2022/05/05 01:45:38;;;;;;;0.60;0.10;;;14.80;1.00;;;;;;4974767;28;20980;-72
2022/05/05 01:48:07;;;;;;;0.60;0.10;;;14.80;1.00;;;;;;4974534;28;20453;-72
2022/05/05 01:50:35;;;;;;;0.60;0.10;;;14.80;1.00;;;;;;4975017;28;20453;-72
2022/05/05 01:53:04;;;;;;;0.70;0.60;;;14.70;1.00;;;;;;4975053;28;20477;-72
2022/05/05 01:55:33;;;;;;;1.50;1.40;;;14.70;1.00;;;;;;4974325;28;20900;-72
2022/05/05 01:58:03;;;;;;;0.60;0.10;;;14.70;1.00;;;;;;4974116;28;20483;-71
2022/05/05 02:00:31;;;;;;;0.60;0.10;;;14.70;1.00;;;;;;4974808;28;20816;-72
2022/05/05 02:03:01;;;;;;;0.60;0.10;;;14.70;1.00;;;;;;4975477;28;20501;-72
2022/05/05 02:05:29;;;;;;;0.60;0.20;;;14.70;1.00;;;;;;4974672;28;20885;-72
2022/05/05 02:07:57;;;;;;;0.60;0.20;;;14.70;1.00;;;;;;4974430;28;20564;-71
2022/05/05 02:10:24;;;;;;;0.60;0.17;;;14.70;1.00;;;;;;4974934;28;20824;-71
2022/05/05 02:12:54;;;;;;;0.60;0.10;;;14.70;1.00;;;;;;4974373;28;20561;-71
2022/05/05 02:15:21;;;;;;;0.60;0.10;;;14.80;1.00;;;;;;4974351;28;20454;-72
2022/05/05 02:17:51;;;;;;;0.60;0.10;;;14.70;1.00;;;;;;4974332;28;20499;-72
2022/05/05 02:20:19;;;;;;;1.47;0.97;;;14.70;1.00;;;;;;4975866;28;20512;-73
2022/05/05 02:22:47;;;;;;;0.60;0.10;;;14.70;1.00;;;;;;4975078;28;20542;-72
2022/05/05 02:25:15;;;;;;;0.60;0.10;;;14.70;1.00;;;;;;4973960;28;20450;-72
2022/05/05 02:27:48;;;;;;;0.60;0.10;;;14.30;1.00;;;;;;4979726;28;20455;-71
2022/05/05 02:30:17;;;;;;;0.60;0.10;;;14.70;1.00;;;;;;4974546;28;21030;-72
2022/05/05 02:32:45;;;;;;;0.87;0.37;;;14.70;1.00;;;;;;4975344;28;20469;-73
2022/05/05 02:35:14;;;;;;;0.60;0.10;;;14.70;1.00;;;;;;4974174;28;20941;-74
2022/05/05 02:40:28;;;;;;;0.60;0.10;;;14.50;1.00;;;;;;4985074;28;20453;-71
2022/05/05 02:42:57;;;;;;;0.60;0.30;;;14.40;1.00;;;;;;4985640;28;20473;-73
2022/05/05 02:45:26;;;;;;;0.60;0.10;;;14.40;1.00;;;;;;4990296;28;20462;-74
2022/05/05 02:47:54;;;;;;;0.80;0.37;;;14.40;1.00;;;;;;4972593;28;20436;-72
2022/05/05 02:50:23;;;;;;;0.70;0.20;;;14.40;1.00;;;;;;4974520;28;20469;-73
2022/05/05 02:52:50;;;;;;;0.60;0.10;;;14.40;1.00;;;;;;4973198;28;20539;-71
2022/05/05 02:55:17;;;;;;;1.53;0.67;;;14.30;1.00;;;;;;4972935;28;20448;-72
2022/05/05 02:57:45;;;;;;;2.70;2.23;;;14.40;1.00;;;;;;4972991;28;20483;-73
2022/05/05 03:00:14;;;;;;;2.60;2.40;;;;;;;;;;4975814;28;20446;-73
2022/05/05 03:02:45;;;;;;;2.53;2.33;;;14.20;1.00;;;;;;4973151;28;20467;-72
2022/05/05 03:05:14;;;;;;;0.70;0.50;;;14.20;1.00;;;;;;4971344;28;20472;-72
2022/05/05 03:07:43;;;;;;;2.63;2.43;;;14.20;1.00;;;;;;4972590;28;20438;-71
2022/05/05 03:10:11;;;;;;;0.60;0.20;;;14.20;1.00;;;;;;4971899;28;20956;-71
2022/05/05 03:12:40;;;;;;;0.70;0.30;;;14.20;1.00;;;;;;4966239;28;20509;-72
2022/05/05 03:15:08;;;;;;;0.60;0.10;;;14.20;1.00;;;;;;4973676;28;20465;-71
2022/05/05 03:17:36;;;;;;;0.80;0.63;;;14.20;1.00;;;;;;4973713;28;20933;-72
2022/05/05 03:20:07;;;;;;;0.60;0.10;;;14.20;1.00;;;;;;4977450;28;20442;-72
2022/05/05 03:22:35;;;;;;;1.97;1.43;;;14.20;1.00;;;;;;4972609;28;20613;-71
2022/05/05 03:25:03;;;;;;;0.60;0.20;;;14.20;1.00;;;;;;4972602;28;20440;-72
2022/05/05 03:27:31;;;;;;;1.13;1.03;;;14.20;1.00;;;;;;4988924;28;20960;-72
2022/05/05 03:29:59;;;;;;;0.60;0.10;;;14.10;1.00;;;;;;4977790;28;20471;-72
2022/05/05 03:32:28;;;;;;;1.53;1.03;;;14.10;1.00;;;;;;4972773;28;20493;-72
2022/05/05 03:34:56;;;;;;;0.87;0.47;;;14.10;1.00;;;;;;4972578;28;20446;-72
2022/05/05 03:37:28;;;;;;;0.70;0.50;;;14.10;1.00;;;;;;4972220;28;20450;-70
2022/05/05 03:39:57;;;;;;;0.60;0.20;;;14.10;1.00;;;;;;4972589;28;20482;-73
2022/05/05 03:42:25;;;;;;;0.60;0.20;;;14.10;1.00;;;;;;4970768;28;20560;-73
2022/05/05 03:44:53;;;;;;;0.60;0.10;;;14.10;1.00;;;;;;4970672;28;20850;-73
2022/05/05 03:47:21;;;;;;;0.60;0.10;;;14.10;1.00;;;;;;4972158;28;20453;-73
2022/05/05 03:49:49;;;;;;;0.60;0.10;;;14.20;1.00;;;;;;4973675;28;20888;-72
2022/05/05 03:52:17;;;;;;;0.60;0.20;;;14.20;1.00;;;;;;4972918;28;20473;-72
2022/05/05 03:54:46;;;;;;;0.60;0.20;;;14.20;1.00;;;;;;4972979;28;20532;-72
2022/05/05 03:57:14;;;;;;;1.20;0.87;;;14.10;1.00;;;;;;4973198;28;20553;-71
2022/05/05 03:59:42;;;;;;;0.60;0.20;;;14.10;1.00;;;;;;4973326;28;20486;-73
2022/05/05 04:02:09;;;;;;;0.60;0.10;;;14.10;1.00;;;;;;4972955;28;20476;-71
2022/05/05 04:04:37;;;;;;;0.60;0.20;;;14.10;1.00;;;;;;4972837;28;20447;-71
2022/05/05 04:07:05;;;;;;;0.60;0.10;;;14.10;1.00;;;;;;4974360;28;20529;-72
2022/05/05 04:09:33;;;;;;;0.70;0.47;;;14.10;1.00;;;;;;4974061;28;20442;-72
2022/05/05 04:12:02;;;;;;;0.60;0.10;;;14.00;1.00;;;;;;4972568;28;20490;-71
2022/05/05 04:14:30;;;;;;;0.60;0.10;;;14.10;1.00;;;;;;4972366;28;20452;-71
2022/05/05 04:16:58;;;;;;;0.60;0.10;;;14.10;1.00;;;;;;4972148;28;20446;-72
2022/05/05 04:19:25;;;;;;;0.60;0.10;;;13.20;1.00;;;;;;4971997;28;20845;-73
2022/05/05 04:21:53;;;;;;;0.60;0.10;;;14.10;1.00;;;;;;4972763;28;20465;-70
2022/05/05 04:24:21;;;;;;;0.60;0.10;;;14.10;1.00;;;;;;4974092;28;20455;-71
2022/05/05 04:26:49;;;;;;;0.60;0.10;;;14.10;1.00;;;;;;4984495;28;20452;-72
2022/05/05 04:29:20;;;;;;;0.60;0.10;;;14.10;1.00;;;;;;4992161;28;20446;-72
2022/05/05 04:31:51;;;;;;;0.60;0.10;;;14.10;1.00;;;;;;4972252;28;20495;-72
2022/05/05 04:34:19;;;;;;;0.60;0.10;;;14.10;1.00;;;;;;4971772;28;20452;-71
2022/05/05 04:36:47;;;;;;;0.60;0.10;;;14.10;1.00;;;;;;4971302;28;21030;-71
2022/05/05 04:39:15;;;;;;;0.70;0.40;;;14.10;1.00;;;;;;4972323;28;20481;-71
2022/05/05 04:41:43;;;;;;;0.60;0.10;;;14.10;1.00;;;;;;4972190;28;20483;-72
2022/05/05 04:44:12;;;;;;;0.60;0.10;;;14.00;1.00;;;;;;4968219;28;20490;-72
2022/05/05 04:46:42;;;;;;;0.60;0.10;;;14.00;1.00;;;;;;4968960;28;20463;-71
2022/05/05 04:49:10;;;;;;;0.60;0.10;;;;;;;;;;4972422;28;20487;-73
2022/05/05 04:51:38;;;;;;;0.60;0.10;;;14.00;1.00;;;;;;4972556;28;20499;-72
2022/05/05 04:54:05;;;;;;;0.60;0.10;;;14.00;1.00;;;;;;4975911;28;20789;-72
2022/05/05 04:56:33;;;;;;;0.60;0.10;;;14.00;1.00;;;;;;4976303;28;20450;-71
2022/05/05 04:59:01;;;;;;;0.60;0.10;;;14.10;1.00;;;;;;4976300;28;20488;-73
2022/05/05 05:01:29;;;;;;;0.60;0.10;;;14.10;1.00;;;;;;4976464;28;20466;-73
2022/05/05 05:03:58;;;;;;;0.90;0.60;;;14.10;1.00;;;;;;4973598;28;20465;-72
2022/05/05 05:06:27;;;;;;;0.60;0.10;;;14.10;1.00;;;;;;4975466;28;20455;-72
2022/05/05 05:08:55;;;;;;;0.60;0.10;;;14.10;1.00;;;;;;4976465;28;20440;-71
2022/05/05 05:11:24;;;;;;;0.60;0.20;;;14.10;1.00;;;;;;4975698;28;20446;-71
2022/05/05 05:13:51;;;;;;;0.60;0.10;;;14.00;1.00;;;;;;4975552;28;20444;-72
2022/05/05 05:16:19;;;;;;;0.60;0.10;;;14.00;1.00;;;;;;4974481;28;20475;-74
2022/05/05 05:19:08;;;;;;;0.60;0.10;;;14.00;1.00;;;;;;4975220;28;21025;-71
2022/05/05 05:21:36;;;;;;;0.60;0.10;;;;;;;;;;4975203;28;20472;-73
2022/05/05 05:24:06;;;;;;;0.60;0.10;;;14.10;1.00;;;;;;4969693;28;20535;-72
2022/05/05 05:26:34;;;;;;;0.60;0.20;;;14.10;1.00;;;;;;4980961;28;20450;-72
2022/05/05 05:29:02;;;;;;;0.60;0.10;;;14.10;1.00;;;;;;4976510;28;20440;-72
2022/05/05 05:31:30;;;;;;;0.60;0.10;;;14.10;1.00;;;;;;4976671;28;20486;-73
2022/05/05 05:33:59;;;;;;;0.60;0.30;;;14.10;1.00;;;;;;4975965;28;20972;-72
2022/05/05 05:36:28;;;;;;;0.60;0.10;;;14.10;1.00;;;;;;4975975;28;20450;-72
2022/05/05 05:38:56;;;;;;;0.60;0.10;;;14.10;1.00;;;;;;4975369;28;20442;-73
2022/05/05 05:41:24;;;;;;;0.60;0.10;;;14.10;1.00;;;;;;4973790;28;20450;-73
2022/05/05 05:43:52;;;;;;;0.70;0.10;;;14.10;1.00;;;;;;4977500;28;20488;-72
2022/05/05 05:46:20;;;;;;;0.60;0.10;;;14.10;1.00;;;;;;4982665;28;20448;-71
2022/05/05 05:48:48;;;;;;;0.60;0.10;;;14.20;1.00;;;;;;4984152;28;20616;-73
2022/05/05 05:51:16;;;;;;;0.60;0.10;;;14.20;1.00;;;;;;4972519;28;20450;-71
2022/05/05 05:53:46;;;;;;;0.60;0.10;;;14.20;1.00;;;;;;4972872;28;20466;-72
2022/05/05 05:56:14;;;;;;;0.60;0.20;;;14.30;1.00;;;;;;4972621;28;21013;-72
2022/05/05 05:58:42;;;;;;;0.60;0.10;;;14.20;1.00;;;;;;4970298;28;20541;-71
2022/05/05 06:01:10;;;;;;;0.60;0.20;;;14.20;1.00;;;;;;4974058;28;20568;-71
2022/05/05 06:03:56;;;;;;;0.60;0.10;;;14.20;1.00;;;;;;4974175;28;20463;-71
2022/05/05 06:06:25;;;;;;;0.60;0.10;;;14.20;1.00;;;;;;4973083;28;20456;-74
2022/05/05 06:08:54;;;;;;;0.60;0.10;;;14.20;1.00;;;;;;4973753;28;20966;-73
2022/05/05 06:11:22;;;;;;;0.60;0.10;;;14.20;1.00;;;;;;4967105;28;20617;-73
2022/05/05 06:13:50;;;;;;;0.60;0.10;;;14.20;1.00;;;;;;4977166;28;20505;-73
2022/05/05 06:16:18;;;;;;;0.60;0.10;;;14.30;1.00;;;;;;4977637;28;20821;-74
2022/05/05 06:18:46;;;;;;;0.60;0.10;;;14.30;1.00;;;;;;4979015;28;20448;-73
2022/05/05 06:21:14;;;;;;;0.60;0.10;;;14.40;1.00;;;;;;4980694;28;20489;-73
2022/05/05 06:23:42;;;;;;;0.60;0.10;;;14.30;1.00;;;;;;4977773;28;20454;-73
2022/05/05 06:26:11;;;;;;;0.60;0.10;;;14.40;1.00;;;;;;4987687;28;20453;-73
2022/05/05 06:28:39;;;;;;;0.60;0.10;;;14.40;1.00;;;;;;4994132;28;20449;-72
2022/05/05 06:31:08;;;;;;;0.60;0.10;;;14.40;1.00;;;;;;4994674;28;20445;-73
2022/05/05 06:33:36;;;;;;;0.60;0.20;;;14.40;1.00;;;;;;4996518;28;20444;-73
2022/05/05 06:36:04;;;;;;;0.60;0.10;;;14.50;1.00;;;;;;4996306;28;20447;-73
2022/05/05 06:38:33;;;;;;;1.57;0.83;;;14.40;1.00;;;;;;4991691;28;20503;-72
2022/05/05 06:41:01;;;;;;;0.60;0.10;;;14.40;1.00;;;;;;4976093;28;20494;-73
2022/05/05 06:43:31;;;;;;;0.70;0.33;;;14.40;1.00;;;;;;4976475;28;20458;-74
2022/05/05 06:45:59;;;;;;;0.70;0.60;;;14.50;1.00;;;;;;4977043;28;20825;-73
2022/05/05 06:48:27;;;;;;;0.60;0.10;;;14.50;1.00;;;;;;4973935;28;20450;-74
2022/05/05 06:50:55;;;;;;;0.60;0.10;;;14.50;1.00;;;;;;4974006;28;20456;-73
2022/05/05 06:53:23;;;;;;;0.60;0.20;;;14.50;1.00;;;;;;4973864;28;20466;-73
2022/05/05 06:55:55;;;;;;;0.60;0.10;;;15.50;1.00;;;;;;4972939;28;20465;-74
2022/05/05 06:58:23;;;;;;;0.60;0.10;;;14.50;1.00;;;;;;4969786;28;20544;-73
2022/05/05 07:03:35;;;;;;;0.60;0.10;;;14.60;1.00;;;;;;4937962;28;20467;-74
2022/05/05 07:06:02;;;;;;;0.60;0.10;;;14.70;1.00;;;;;;4971196;28;20464;-73
2022/05/05 07:11:24;;;;;;;1.60;0.70;;;14.80;1.00;;;;;;4973340;28;20548;-73
2022/05/05 07:13:51;;;;;;;0.90;0.43;;;14.90;1.00;;;;;;4973509;28;20891;-72
2022/05/05 07:16:21;;;;;;;1.20;1.10;;;14.90;1.00;;;;;;4972106;28;20944;-71
2022/05/05 07:18:49;;;;;;;0.70;0.50;;;14.90;1.00;;;;;;4973484;28;20462;-72
2022/05/05 07:21:17;;;;;;;0.60;0.10;;;14.90;1.00;;;;;;4973328;28;20581;-73
2022/05/05 07:23:45;;;;;;;0.60;0.10;;;14.90;1.00;;;;;;4977739;28;20437;-72
2022/05/05 07:26:15;;;;;;;1.67;1.57;;;;;;;;;;4986063;28;20446;-71
2022/05/05 07:28:45;;;;;;;0.60;0.13;;;14.80;1.00;;;;;;4973417;28;20477;-70
2022/05/05 07:31:13;;;;;;;0.60;0.10;;;14.80;1.00;;;;;;4985296;28;20472;-73
2022/05/05 07:33:42;;;;;;;0.60;0.20;;;14.80;1.00;;;;;;4993424;28;20843;-72
2022/05/05 07:36:10;;;;;;;1.93;0.40;;;14.80;1.00;;;;;;4975716;28;20465;-73
2022/05/05 07:38:38;;;;;;;0.60;0.10;;;14.70;1.00;;;;;;4972725;28;20465;-73
2022/05/05 07:41:06;;;;;;;0.60;0.10;;;14.80;1.00;;;;;;4971667;28;20574;-73
2022/05/05 07:43:34;;;;;;;0.60;0.13;;;14.80;1.00;;;;;;4972434;28;20978;-72
2022/05/05 07:46:04;;;;;;;0.60;0.10;;;15.00;1.00;;;;;;4972508;28;20460;-71
2022/05/05 07:48:32;;;;;;;0.60;0.10;;;15.00;1.00;;;;;;4972998;28;20453;-71
2022/05/05 07:51:01;;;;;;;0.60;0.10;;;15.00;1.00;;;;;;4985479;28;20469;-75
2022/05/05 07:53:29;;;;;;;0.60;0.10;;;15.10;1.00;;;;;;4980713;28;21119;-71
2022/05/05 07:55:57;;;;;;;0.60;0.20;;;15.10;1.00;;;;;;4971293;28;20459;-73
2022/05/05 07:58:25;;;;;;;0.60;0.13;;;15.10;1.00;;;;;;4970695;28;20452;-71
2022/05/05 08:00:53;;;;;;;0.60;0.30;;;15.00;1.00;;;;;;4973462;28;20518;-72
2022/05/05 08:03:21;;;;;;;0.60;0.33;;;15.00;1.00;;;;;;4973926;28;20868;-71
2022/05/05 08:05:49;;;;;;;0.60;0.20;;;15.00;1.00;;;;;;4985314;28;20472;-72
2022/05/05 08:08:18;;;;;;;0.60;0.10;;;15.00;1.00;;;;;;4990737;28;20510;-72
2022/05/05 08:10:47;;;;;;;0.60;0.20;;;15.00;1.00;;;;;;4992753;28;20449;-72
2022/05/05 08:13:15;;;;;;;0.60;0.20;;;;;;;;;;4987826;28;21344;-72
2022/05/05 08:15:43;;;;;;;0.60;0.10;;;15.00;1.00;;;;;;4983219;28;20475;-73
2022/05/05 08:18:11;;;;;;;0.60;0.10;;;15.00;1.00;;;;;;4973556;28;20562;-71
2022/05/05 08:20:39;;;;;;;1.53;0.70;;;15.10;1.00;;;;;;4968821;28;20471;-72
2022/05/05 08:23:07;;;;;;;0.73;0.60;;;15.10;1.00;;;;;;4982987;28;20476;-72
2022/05/05 08:28:29;;;;;;;0.70;0.30;;;15.10;1.00;;;;;;4985829;28;20556;-72
2022/05/05 08:30:57;;;;;;;0.60;0.10;;;15.10;1.00;;;;;;4976554;28;20473;-72
2022/05/05 08:33:27;;;;;;;0.60;0.10;;;15.10;1.00;;;;;;4978019;28;20480;-73
2022/05/05 08:35:55;;;;;;;0.60;0.10;;;15.20;1.00;;;;;;4983077;28;20480;-72
2022/05/05 08:38:23;;;;;;;0.60;0.10;;;15.20;1.00;;;;;;4978391;28;20472;-70
2022/05/05 08:40:53;;;;;;;0.60;0.10;;;15.20;1.00;;;;;;4974109;28;20508;-71
2022/05/05 08:43:21;;;;;;;0.60;0.10;;;15.30;1.00;;;;;;4979135;28;20883;-73
2022/05/05 08:45:50;;;;;;;0.60;0.10;;;15.30;1.00;;;;;;4977451;28;20449;-72
2022/05/05 08:48:18;;;;;;;0.60;0.20;;;15.30;1.00;;;;;;4976109;28;20542;-71
2022/05/05 08:50:52;;;;;;;0.60;0.10;;;15.30;1.00;;;;;;4980367;28;21159;-72
2022/05/05 08:53:22;;;;;;;0.70;0.60;;;15.40;1.00;;;;;;4979309;28;20480;-72
2022/05/05 08:55:51;;;;;;;0.60;0.10;;;15.50;1.00;;;;;;4995617;28;20540;-73
2022/05/05 08:58:19;;;;;;;0.60;0.20;;;15.50;1.00;;;;;;4979777;28;20481;-73
2022/05/05 09:00:47;;;;;;;0.60;0.10;;;15.60;1.00;;;;;;4992992;28;20526;-72
2022/05/05 09:03:16;;;;;;;0.60;0.20;;;15.70;1.00;;;;;;4975988;28;20470;-72
2022/05/05 09:05:48;;;;;;;0.60;0.10;;;15.80;1.00;;;;;;4976750;28;20450;-71
2022/05/05 09:08:28;;;;;;;0.87;0.50;;;15.90;1.00;;;;;;4975920;28;20541;-72
2022/05/05 09:10:59;;;;;;;0.60;0.20;;;16.00;1.00;;;;;;4982825;28;20460;-72
2022/05/05 09:13:28;;;;;;;1.23;1.13;;;16.00;1.00;;;;;;4996865;28;20477;-71
2022/05/05 09:15:56;;;;;;;0.60;0.10;;;16.10;1.00;;;;;;4996745;28;20448;-71
2022/05/05 09:18:28;;;;;;;0.70;0.37;;;16.20;1.00;;;;;;4990801;28;20549;-72
2022/05/05 09:21:01;;;;;;;0.60;0.10;;;16.30;1.00;;;;;;4987096;28;20449;-73
2022/05/05 09:23:31;;;;;;;0.60;0.10;;;16.30;1.00;;;;;;4995687;28;20465;-72
2022/05/05 09:26:02;;;;;;;0.60;0.10;;;16.40;1.00;;;;;;4974432;28;20473;-72
2022/05/05 09:28:31;;;;;;;0.60;0.10;;;16.50;99.90;;;;;;4973817;28;20465;-71
2022/05/05 09:31:05;;;;;;;0.60;0.10;;;16.60;99.90;;;;;;4976095;28;20452;-71
2022/05/05 09:33:43;;;;;;;0.60;0.10;;;16.60;99.90;;;;;;4974242;28;20532;-71
2022/05/05 09:36:13;;;;;;;0.60;0.13;;;16.80;99.90;;;;;;4982709;28;20449;-71
2022/05/05 09:38:51;;;;;;;0.60;0.20;;;16.90;99.90;;;;;;4985825;28;20444;-72
2022/05/05 09:41:21;;;;;;;0.60;0.10;;;17.10;99.90;;;;;;4994271;28;20483;-73
2022/05/05 09:43:50;;;;;;;0.60;0.10;;;17.10;99.90;;;;;;4982947;28;20457;-74
2022/05/05 09:46:40;;;;;;;0.60;0.10;;;17.20;1.00;;;;;;4973780;28;20969;-72
2022/05/05 09:49:11;;;;;;;0.60;0.10;;;17.30;99.90;;;;;;4978491;28;20455;-73
2022/05/05 09:51:42;;;;;;;0.90;0.57;;;17.40;99.90;;;;;;4986374;28;20537;-72
2022/05/05 09:59:50;;;;;;;4.70;4.30;;;17.60;99.90;;;;;;4975466;28;20460;-73
2022/05/05 10:05:13;;;;;;;0.60;0.20;;;17.60;99.90;;;;;;4976289;28;20458;-73
2022/05/05 10:07:44;;;;;;;0.70;0.50;;;17.70;99.90;;;;;;4982195;28;20438;-72
2022/05/05 10:10:14;;;;;;;0.60;0.10;;;17.80;99.90;;;;;;4970694;28;20986;-74
2022/05/05 10:12:44;;;;;;;0.80;0.80;;;17.60;99.90;;;;;;4970864;28;20971;-73
2022/05/05 10:15:13;;;;;;;0.60;0.10;;;17.60;99.90;;;;;;4966615;28;20520;-73
2022/05/05 10:17:42;;;;;;;0.60;0.40;;;17.60;99.90;;;;;;4973309;28;20457;-73
2022/05/05 10:20:12;;;;;;;0.60;0.10;;;17.50;99.90;;;;;;4982488;28;20453;-73
2022/05/05 10:22:48;;;;;;;0.60;0.10;;;17.60;99.90;;;;;;4994278;28;20551;-73
2022/05/05 10:25:22;;;;;;;0.60;0.10;;;17.60;99.90;;;;;;4980270;28;20808;-71
2022/05/05 10:27:51;;;;;;;0.80;0.57;;;17.70;99.90;;;;;;4980931;28;20446;-73
2022/05/05 10:30:34;;;;;;;0.60;0.20;;;17.80;99.90;;;;;;4984889;28;20447;-74
2022/05/05 10:33:03;;;;;;;0.70;0.10;;;17.90;99.90;;;;;;4988099;28;20463;-74
2022/05/05 10:35:40;;;;;;;0.80;0.70;;;17.90;99.90;;;;;;4974059;28;20503;-74
2022/05/05 10:38:38;;;;;;;0.60;0.10;;;17.90;99.90;;;;;;4973980;28;20452;-72
2022/05/05 10:41:35;;;;;;;0.60;0.20;;;18.00;99.90;;;;;;4973794;28;20457;-74
2022/05/05 10:44:31;;;;;;;0.60;0.10;;;17.90;99.90;;;;;;4973219;28;20436;-73
2022/05/05 10:47:02;;;;;;;0.70;0.33;;;18.00;99.90;;;;;;4961210;28;20451;-74
2022/05/05 10:49:49;;;;;;;0.60;0.10;;;18.00;99.90;;;;;;4973887;28;20442;-74
2022/05/05 10:52:31;;;;;;;0.60;0.10;;;17.90;99.90;;;;;;4987022;28;20837;-73
2022/05/05 10:55:25;;;;;;;0.60;0.20;;;17.90;99.90;;;;;;4985569;28;20446;-74
2022/05/05 10:58:13;;;;;;;0.60;0.10;;;18.00;99.90;;;;;;4976461;28;20452;-74
2022/05/05 11:00:44;;;;;;;0.60;0.10;;;17.90;99.90;;;;;;4973881;28;20447;-74
2022/05/05 11:03:24;;;;;;;0.60;0.10;;;17.80;99.90;;;;;;4973593;28;20490;-76
2022/05/05 11:06:16;;;;;;;0.60;0.10;;;17.70;99.90;;;;;;4972769;28;20543;-75
2022/05/05 11:08:53;;;;;;;0.60;0.10;;;17.70;99.90;;;;;;4977656;28;20450;-75
2022/05/05 11:22:59;;;;;;;0.60;0.10;;;17.50;99.90;;;;;;4987552;28;20484;-75
2022/05/05 11:25:27;;;;;;;0.60;0.10;;;17.40;99.90;;;;;;4972611;28;20496;-76
2022/05/05 11:27:57;;;;;;;0.60;0.10;;;17.30;99.90;;;;;;4972688;28;20448;-74
2022/05/05 11:30:25;;;;;;;0.60;0.10;;;17.40;99.90;;;;;;4980694;28;20480;-75
2022/05/05 11:32:54;;;;;;;0.60;0.10;;;17.50;99.90;;;;;;4986004;28;20818;-75
2022/05/05 11:35:53;;;;;;;2.40;0.60;;;17.60;99.90;;;;;;4992119;28;20467;-73
2022/05/05 11:38:23;;;;;;;0.60;0.10;;;17.80;99.90;;;;;;4981166;28;20947;-73
2022/05/05 11:40:59;;;;;;;0.60;0.20;;;17.80;99.90;;;;;;4971508;28;20490;-75
2022/05/05 11:46:16;;;;;;;0.63;0.30;;;18.20;99.90;;;;;;4943941;28;20539;-74
2022/05/05 11:48:54;;;;;;;0.70;0.40;;;18.20;99.90;;;;;;4969233;28;20518;-75
2022/05/05 11:51:23;;;;;;;0.60;0.20;;;18.30;99.90;;;;;;4969409;28;20439;-75
2022/05/05 11:53:59;;;;;;;1.20;0.67;;;18.30;99.90;;;;;;4971042;28;20455;-75
2022/05/05 11:56:28;;;;;;;0.60;0.10;;;18.50;99.90;;;;;;4969212;28;20478;-75
2022/05/05 12:01:42;;;;;;;0.60;0.10;;;19.00;99.90;;;;;;4970887;28;20481;-76
2022/05/05 12:04:12;;;;;;;0.60;0.20;;;19.20;99.90;;;;;;4971680;28;20497;-75
2022/05/05 12:06:41;;;;;;;0.60;0.20;;;19.40;99.90;;;;;;4970807;28;20818;-75
2022/05/05 12:09:09;;;;;;;0.70;0.63;;;19.30;99.90;;;;;;4973161;28;20440;-75
2022/05/05 12:11:38;;;;;;;0.60;0.10;;;19.50;99.90;;;;;;4973369;28;20885;-74
2022/05/05 12:14:09;;;;;;;0.60;0.10;;;19.50;99.90;;;;;;4973903;28;20523;-75
2022/05/05 12:16:38;;;;;;;0.60;0.10;;;19.50;99.90;;;;;;4973975;28;20512;-75
2022/05/05 12:19:17;;;;;;;1.23;1.13;;;19.10;99.90;;;;;;4981889;28;20454;-75
2022/05/05 12:22:05;;;;;;;0.70;0.50;;;19.80;99.90;;;;;;4973736;28;20466;-75
2022/05/05 12:24:33;;;;;;;0.60;0.10;;;19.90;99.90;;;;;;4971657;28;20488;-75
2022/05/05 12:27:08;;;;;;;0.70;0.30;;;19.90;99.90;;;;;;4984754;28;20441;-75
2022/05/05 12:29:40;;;;;;;1.17;0.60;;;19.90;99.90;;;;;;4991814;28;20535;-75
2022/05/05 12:32:12;;;;;;;0.60;0.20;;;20.00;99.90;;;;;;4996338;28;20469;-75
2022/05/05 12:34:42;;;;;;;0.60;0.13;;;20.10;99.90;;;;;;4976044;28;20446;-75
2022/05/05 12:37:21;;;;;;;0.70;0.10;;;20.20;99.90;;;;;;4975066;28;20984;-75
2022/05/05 12:39:50;;;;;;;0.80;0.73;;;20.10;99.90;;;;;;4954619;29;20819;-75
2022/05/05 12:42:20;;;;;;;0.60;0.10;;;20.00;99.90;;;;;;4971217;28;20468;-75
2022/05/05 12:44:49;;;;;;;0.60;0.10;;;20.00;99.90;;;;;;4971389;28;20460;-74
2022/05/05 12:47:22;;;;;;;0.60;0.10;;;19.90;99.90;;;;;;4971876;28;20460;-75
2022/05/05 12:49:52;;;;;;;0.60;0.20;;;19.90;99.90;;;;;;4974022;28;20950;-75
2022/05/05 13:00:52;;;;;;;0.60;0.20;;;20.00;99.90;;;;;;4952829;29;20460;-74
2022/05/05 13:03:40;;;;;;;0.60;0.17;;;20.00;99.90;;;;;;4966802;28;20473;-74
2022/05/05 13:06:11;;;;;;;0.60;0.10;;;20.10;99.90;;;;;;4971349;28;20911;-75
2022/05/05 13:08:50;;;;;;;0.60;0.20;;;20.20;99.90;;;;;;4958985;28;20488;-75
2022/05/05 13:11:18;;;;;;;0.63;0.17;;;20.50;99.90;;;;;;4956984;28;20461;-75
2022/05/05 13:13:46;;;;;;;0.60;0.10;;;20.50;99.90;;;;;;4957686;28;20819;-74
2022/05/05 13:16:14;;;;;;;1.73;0.40;;;20.50;99.90;;;;;;4965746;28;20477;-76
2022/05/05 13:18:43;;;;;;;0.70;0.10;;;20.50;99.90;;;;;;4963718;28;20443;-75
2022/05/05 13:21:12;;;;;;;0.70;0.10;;;20.80;99.90;;;;;;4956530;28;20509;-75
2022/05/05 13:23:40;;;;;;;0.70;0.20;;;20.80;99.90;;;;;;4956359;28;20574;-75
2022/05/05 13:26:10;;;;;;;0.60;0.10;;;20.90;99.90;;;;;;4957134;28;20924;-75
2022/05/05 13:28:39;;;;;;;0.63;0.10;;;20.90;99.90;;;;;;4955627;28;20970;-74
2022/05/05 13:31:07;;;;;;;0.70;0.10;;;20.90;99.90;;;;;;4955572;29;20541;-75
2022/05/05 13:33:35;;;;;;;1.93;1.20;;;20.80;99.90;;;;;;4955597;28;20831;-75
2022/05/05 13:36:04;;;;;;;0.70;0.10;;;20.80;99.90;;;;;;4955486;29;20474;-75
2022/05/05 13:38:33;;;;;;;0.70;0.17;;;20.70;99.90;;;;;;4955392;28;20974;-74
2022/05/05 13:41:21;;;;;;;0.70;0.20;;;20.60;99.90;;;;;;4954982;28;20450;-75
2022/05/05 13:43:49;;;;;;;0.60;0.20;;;20.60;99.90;;;;;;4955170;29;20479;-74
2022/05/05 13:46:17;;;;;;;0.70;0.10;;;20.60;99.90;;;;;;4954371;29;20550;-74
2022/05/05 13:48:45;;;;;;;0.70;0.10;;;20.70;99.90;;;;;;4955243;29;20449;-73
2022/05/05 13:51:13;;;;;;;0.70;0.20;;;21.00;99.90;;;;;;4955405;28;20453;-73
2022/05/05 13:53:42;;;;;;;0.70;0.20;;;21.00;99.90;;;;;;4955089;29;20447;-74
2022/05/05 13:56:12;;;;;;;0.73;0.37;;;21.10;99.90;;;;;;4960924;28;20449;-75
2022/05/05 13:58:40;;;;;;;1.57;0.83;;;21.30;99.90;;;;;;4973056;28;20544;-74
2022/05/05 14:01:08;;;;;;;0.80;0.30;;;21.30;99.90;;;;;;4962747;28;20463;-75
2022/05/05 14:03:38;;;;;;;0.70;0.20;;;21.30;99.90;;;;;;4956626;28;20490;-75